Time;durP1;ratioP1;P1;durP2;ratioP2;P2;SDS_P1;SDS_P2;PMS_P1;PMS_P2;Temp;Humidity;BMP_temperature;BMP_pressure;BME280_temperature;BME280_humidity;BME280_pressure;Samples;Min_cycle;Max_cycle;Signal;HPM_P1;HPM_P2
2022/09/21 00:02:11;;;;;;;13.02;4.20;;;;;;;;;;4996964;28;20068;-64
2022/09/21 00:04:42;;;;;;;10.48;3.92;;;;;;;;;;5029575;28;20506;-64
2022/09/21 00:07:12;;;;;;;10.00;2.72;;;;;;;;;;5012795;28;21104;-64
2022/09/21 00:09:42;;;;;;;7.45;2.72;;;;;;;;;;4980100;28;20410;-64
2022/09/21 00:12:12;;;;;;;7.53;2.42;;;;;;;;;;4996392;28;20054;-64
2022/09/21 00:14:43;;;;;;;7.18;2.55;;;;;;;;;;4996755;28;20062;-64
2022/09/21 00:17:13;;;;;;;7.15;2.28;;;;;;;;;;5029620;28;20054;-64
2022/09/21 00:19:43;;;;;;;4.30;1.90;;;;;;;;;;5029184;28;20049;-66
2022/09/21 00:22:13;;;;;;;3.65;1.70;;;;;;;;;;4996342;28;20061;-65
2022/09/21 00:24:42;;;;;;;3.75;1.42;;;;;;;;;;5048071;28;20489;-64
2022/09/21 00:27:12;;;;;;;6.45;2.10;;;;;;;;;;5069111;28;20052;-64
2022/09/21 00:29:43;;;;;;;5.13;2.28;;;;;;;;;;5068901;28;20044;-64
2022/09/21 00:32:14;;;;;;;7.25;2.67;;;;;;;;;;5069229;28;20161;-64
2022/09/21 00:34:44;;;;;;;6.57;2.58;;;;;;;;;;5068972;28;20060;-64
2022/09/21 00:37:14;;;;;;;10.00;2.90;;;;;;;;;;5068860;28;20538;-65
2022/09/21 00:39:44;;;;;;;5.68;2.63;;;;;;;;;;5069137;28;20432;-64
2022/09/21 00:42:30;;;;;;;5.22;2.63;;;;;;;;;;5068606;28;20060;-64
2022/09/21 00:45:01;;;;;;;4.72;2.35;;;;;;;;;;5054701;28;20079;-65
2022/09/21 00:47:34;;;;;;;4.53;2.17;;;;;;;;;;5038938;28;20123;-64
2022/09/21 00:50:10;;;;;;;5.90;2.08;;;;;;;;;;5072407;28;20048;-64
2022/09/21 00:52:44;;;;;;;6.05;1.85;;;;;;;;;;5089052;28;20048;-64
2022/09/21 00:55:20;;;;;;;5.45;1.85;;;;;;;;;;4991772;28;20044;-64
2022/09/21 00:57:57;;;;;;;5.35;2.13;;;;;;;;;;5089095;28;20052;-63
2022/09/21 01:00:27;;;;;;;4.78;2.47;;;;;;;;;;5039417;28;20496;-64
2022/09/21 01:03:00;;;;;;;6.82;2.20;;;;;;;;;;5088858;28;20052;-63
2022/09/21 01:05:30;;;;;;;7.05;2.33;;;;;;;;;;5072164;28;20094;-66
2022/09/21 01:08:03;;;;;;;5.15;2.30;;;;;;;;;;5051154;28;20048;-64
2022/09/21 01:10:54;;;;;;;5.75;2.22;;;;;;;;;;5071932;28;20056;-64
2022/09/21 01:13:48;;;;;;;4.93;2.20;;;;;;;;;;4973124;28;20056;-63
2022/09/21 01:16:35;;;;;;;5.07;2.33;;;;;;;;;;4989172;28;20062;-63
2022/09/21 01:19:42;;;;;;;5.03;2.20;;;;;;;;;;4969374;28;20403;-64
2022/09/21 01:22:37;;;;;;;8.63;2.65;;;;;;;;;;4969647;28;20059;-63
2022/09/21 01:25:13;;;;;;;7.22;2.65;;;;;;;;;;4970020;28;20062;-64
2022/09/21 01:28:13;;;;;;;9.10;2.53;;;;;;;;;;4970187;28;20050;-63
2022/09/21 01:30:46;;;;;;;6.22;2.10;;;;;;;;;;4893271;29;20060;-64
2022/09/21 01:33:32;;;;;;;6.90;2.92;;;;;;;;;;4893686;29;20064;-66
2022/09/21 01:36:11;;;;;;;6.88;2.50;;;;;;;;;;4877795;29;20505;-64
2022/09/21 01:39:06;;;;;;;6.55;2.88;;;;;;;;;;4893398;29;20065;-64
2022/09/21 01:41:41;;;;;;;6.03;2.70;;;;;;;;;;4892746;29;20064;-63
2022/09/21 01:44:18;;;;;;;7.43;2.17;;;;;;;;;;4893193;29;20060;-64
2022/09/21 01:46:49;;;;;;;7.78;2.38;;;;;;;;;;4908774;29;20057;-63
2022/09/21 01:49:33;;;;;;;4.28;2.53;;;;;;;;;;4893018;29;20049;-65
2022/09/21 01:52:33;;;;;;;6.10;2.80;;;;;;;;;;4934230;29;20051;-63
2022/09/21 01:55:14;;;;;;;6.43;2.50;;;;;;;;;;4933895;28;20503;-64
2022/09/21 01:57:50;;;;;;;5.85;2.17;;;;;;;;;;4921188;29;20051;-63
2022/09/21 02:00:21;;;;;;;7.72;2.35;;;;;;;;;;4953792;29;20055;-64
2022/09/21 02:03:18;;;;;;;6.07;2.65;;;;;;;;;;4921828;29;20107;-65
2022/09/21 02:05:48;;;;;;;9.18;2.72;;;;;;;;;;4868769;29;20059;-64
2022/09/21 02:08:18;;;;;;;5.65;2.78;;;;;;;;;;4915515;29;20064;-63
2022/09/21 02:10:51;;;;;;;6.22;2.72;;;;;;;;;;4915161;29;20052;-64
2022/09/21 02:13:26;;;;;;;9.32;2.75;;;;;;;;;;4915463;29;20063;-63
2022/09/21 02:16:25;;;;;;;7.72;2.92;;;;;;;;;;4915399;29;20051;-64
2022/09/21 02:19:15;;;;;;;6.60;2.75;;;;;;;;;;4915493;29;20051;-63
2022/09/21 02:22:11;;;;;;;11.93;3.25;;;;;;;;;;4915164;29;20465;-64
2022/09/21 02:24:42;;;;;;;6.03;3.00;;;;;;;;;;4915513;29;20417;-64
2022/09/21 02:27:45;;;;;;;6.63;2.70;;;;;;;;;;4899407;29;20059;-64
2022/09/21 02:30:21;;;;;;;7.72;2.92;;;;;;;;;;4915293;29;20421;-64
2022/09/21 02:33:12;;;;;;;9.80;3.35;;;;;;;;;;5010021;28;20604;-65
2022/09/21 02:36:00;;;;;;;7.40;3.20;;;;;;;;;;5031361;28;20445;-65
2022/09/21 02:38:55;;;;;;;12.40;3.67;;;;;;;;;;5031553;28;20129;-64
2022/09/21 02:41:33;;;;;;;7.50;3.25;;;;;;;;;;5011242;28;20438;-64
2022/09/21 02:44:39;;;;;;;8.80;3.25;;;;;;;;;;5030098;28;20046;-64
2022/09/21 02:47:13;;;;;;;7.68;3.08;;;;;;;;;;5011208;28;20188;-65
2022/09/21 02:49:52;;;;;;;5.72;2.67;;;;;;;;;;4952684;28;20182;-64
2022/09/21 02:52:25;;;;;;;7.85;3.05;;;;;;;;;;4921077;28;20814;-64
2022/09/21 02:54:56;;;;;;;8.45;3.17;;;;;;;;;;4952937;28;20067;-64
2022/09/21 02:57:27;;;;;;;10.85;3.20;;;;;;;;;;4921499;28;20436;-65
2022/09/21 02:59:58;;;;;;;6.65;2.53;;;;;;;;;;4952603;28;20077;-64
2022/09/21 03:02:42;;;;;;;8.60;2.95;;;;;;;;;;4952380;28;20165;-64
2022/09/21 03:05:14;;;;;;;6.68;2.65;;;;;;;;;;4952646;28;20047;-64
2022/09/21 03:07:45;;;;;;;5.93;2.83;;;;;;;;;;4952133;28;20063;-64
2022/09/21 03:10:15;;;;;;;6.13;2.90;;;;;;;;;;4920641;28;20068;-64
2022/09/21 03:12:47;;;;;;;8.77;3.25;;;;;;;;;;4952423;28;20051;-64
2022/09/21 03:15:18;;;;;;;5.70;2.75;;;;;;;;;;4952387;28;20055;-64
2022/09/21 03:17:48;;;;;;;7.90;3.40;;;;;;;;;;4952565;28;20059;-64
2022/09/21 03:20:18;;;;;;;4.70;2.50;;;;;;;;;;4936860;29;20066;-64
2022/09/21 03:22:47;;;;;;;6.65;3.10;;;;;;;;;;4989184;28;20054;-64
2022/09/21 03:25:17;;;;;;;9.27;2.90;;;;;;;;;;4990834;28;20573;-64
2022/09/21 03:27:48;;;;;;;10.65;3.17;;;;;;;;;;4991032;28;20058;-65
2022/09/21 03:30:17;;;;;;;8.65;3.08;;;;;;;;;;4990979;28;20055;-65
2022/09/21 03:32:52;;;;;;;8.15;2.83;;;;;;;;;;4991042;28;20122;-64
2022/09/21 03:35:25;;;;;;;8.52;3.53;;;;;;;;;;4971212;28;20057;-65
2022/09/21 03:37:56;;;;;;;10.40;3.78;;;;;;;;;;4983421;28;20058;-64
2022/09/21 03:40:27;;;;;;;12.40;4.10;;;;;;;;;;5015479;28;20053;-64
2022/09/21 03:42:57;;;;;;;11.27;4.18;;;;;;;;;;5029959;28;20049;-65
2022/09/21 03:45:27;;;;;;;9.35;3.70;;;;;;;;;;5030033;28;20066;-64
2022/09/21 03:48:00;;;;;;;10.63;3.65;;;;;;;;;;5014061;28;20053;-64
2022/09/21 03:50:30;;;;;;;8.10;3.53;;;;;;;;;;5030069;28;20060;-64
2022/09/21 03:53:00;;;;;;;8.80;3.53;;;;;;;;;;5029742;28;20054;-65
2022/09/21 03:55:31;;;;;;;10.35;3.00;;;;;;;;;;5029938;28;20045;-66
2022/09/21 03:58:03;;;;;;;9.27;3.00;;;;;;;;;;5029859;28;20409;-65
2022/09/21 04:00:33;;;;;;;8.55;3.05;;;;;;;;;;4970715;28;20051;-64
2022/09/21 04:03:04;;;;;;;7.95;3.55;;;;;;;;;;4981546;28;20506;-64
2022/09/21 04:05:34;;;;;;;7.78;3.22;;;;;;;;;;4990625;28;20416;-64
2022/09/21 04:08:04;;;;;;;7.18;3.47;;;;;;;;;;4958143;28;20511;-64
2022/09/21 04:10:35;;;;;;;6.72;2.67;;;;;;;;;;4989990;28;20051;-64
2022/09/21 04:13:05;;;;;;;8.18;3.60;;;;;;;;;;4991487;28;20046;-65
2022/09/21 04:15:35;;;;;;;9.75;3.63;;;;;;;;;;5009723;28;20057;-64
2022/09/21 04:18:06;;;;;;;9.48;3.60;;;;;;;;;;5039032;28;20489;-64
2022/09/21 04:20:36;;;;;;;12.55;3.78;;;;;;;;;;5048651;28;20065;-65
2022/09/21 04:23:07;;;;;;;14.80;4.10;;;;;;;;;;5049315;28;20057;-65
2022/09/21 04:25:37;;;;;;;10.25;3.95;;;;;;;;;;5049075;28;20049;-65
2022/09/21 04:28:07;;;;;;;13.07;3.90;;;;;;;;;;5049176;28;20436;-64
2022/09/21 04:30:37;;;;;;;12.68;4.20;;;;;;;;;;5049101;28;20194;-64
2022/09/21 04:33:07;;;;;;;15.27;4.00;;;;;;;;;;5049166;28;20068;-64
2022/09/21 04:35:37;;;;;;;9.98;4.55;;;;;;;;;;5049013;28;20194;-65
2022/09/21 04:38:07;;;;;;;13.07;4.20;;;;;;;;;;5049079;28;20060;-64
2022/09/21 04:40:37;;;;;;;10.52;4.55;;;;;;;;;;5048931;28;20049;-64
2022/09/21 04:43:09;;;;;;;12.07;6.13;;;;;;;;;;5048936;28;20057;-64
2022/09/21 04:45:39;;;;;;;9.80;3.85;;;;;;;;;;5049033;28;20084;-65
2022/09/21 04:48:09;;;;;;;10.55;3.92;;;;;;;;;;5049030;28;20160;-64
2022/09/21 04:50:39;;;;;;;12.70;4.93;;;;;;;;;;5068820;28;20052;-64
2022/09/21 04:53:10;;;;;;;11.38;4.53;;;;;;;;;;5072671;28;20422;-64
2022/09/21 04:55:40;;;;;;;16.65;5.05;;;;;;;;;;5072608;28;20052;-64
2022/09/21 04:58:10;;;;;;;10.60;4.22;;;;;;;;;;5091551;28;20391;-64
2022/09/21 05:00:40;;;;;;;13.70;5.65;;;;;;;;;;5090450;28;20047;-64
2022/09/21 05:03:10;;;;;;;22.35;4.60;;;;;;;;;;5091323;28;20404;-65
2022/09/21 05:05:49;;;;;;;11.40;4.70;;;;;;;;;;5091396;28;20395;-64
2022/09/21 05:11:13;;;;;;;14.18;4.55;;;;;;;;;;5091224;28;20048;-64
2022/09/21 05:13:43;;;;;;;12.85;4.85;;;;;;;;;;5091336;28;20040;-64
2022/09/21 05:16:14;;;;;;;12.15;4.28;;;;;;;;;;5055248;28;20059;-64
2022/09/21 05:18:44;;;;;;;9.93;3.95;;;;;;;;;;5088764;28;20491;-64
2022/09/21 05:21:15;;;;;;;9.38;3.72;;;;;;;;;;5088687;28;20056;-64
2022/09/21 05:23:45;;;;;;;12.10;4.32;;;;;;;;;;5088426;28;20056;-64
2022/09/21 05:26:15;;;;;;;12.00;3.95;;;;;;;;;;5088696;28;20167;-64
2022/09/21 05:28:45;;;;;;;13.15;4.40;;;;;;;;;;5088738;28;20518;-63
2022/09/21 05:31:19;;;;;;;13.32;4.25;;;;;;;;;;5091062;28;20423;-63
2022/09/21 05:33:56;;;;;;;10.55;4.70;;;;;;;;;;5052206;28;20049;-65
2022/09/21 05:36:30;;;;;;;13.23;4.00;;;;;;;;;;5052290;28;20057;-64
2022/09/21 05:39:00;;;;;;;14.40;4.60;;;;;;;;;;4986225;28;20049;-64
2022/09/21 05:41:31;;;;;;;12.60;5.05;;;;;;;;;;5052214;28;20056;-64
2022/09/21 05:44:01;;;;;;;12.50;4.60;;;;;;;;;;5052133;28;20057;-63
2022/09/21 05:46:52;;;;;;;10.38;4.20;;;;;;;;;;5031886;28;20049;-64
2022/09/21 05:49:24;;;;;;;9.75;3.53;;;;;;;;;;4999432;28;20308;-64
2022/09/21 05:52:01;;;;;;;10.70;4.03;;;;;;;;;;5032092;28;20060;-64
2022/09/21 05:55:01;;;;;;;9.90;3.95;;;;;;;;;;5032052;28;20187;-64
2022/09/21 05:57:59;;;;;;;8.95;3.85;;;;;;;;;;5051426;28;20055;-64
2022/09/21 06:00:38;;;;;;;;;;;;;;;;;;5052589;28;20067;-64
2022/09/21 06:03:27;;;;;;;13.13;3.80;;;;;;;;;;5051756;28;20348;-64
2022/09/21 06:05:58;;;;;;;7.97;3.40;;;;;;;;;;5051802;28;20525;-65
2022/09/21 06:08:28;;;;;;;11.02;3.85;;;;;;;;;;5031587;28;20050;-64
2022/09/21 06:10:58;;;;;;;10.65;3.92;;;;;;;;;;5037746;28;20071;-65
2022/09/21 06:13:29;;;;;;;11.05;3.55;;;;;;;;;;5051714;28;20061;-64
2022/09/21 06:16:02;;;;;;;12.07;3.83;;;;;;;;;;5051755;28;20052;-64
2022/09/21 06:18:38;;;;;;;11.25;3.50;;;;;;;;;;5002022;28;20052;-64
2022/09/21 06:21:08;;;;;;;11.25;3.92;;;;;;;;;;5051706;28;20061;-64
2022/09/21 06:23:39;;;;;;;9.93;3.95;;;;;;;;;;5057346;28;20052;-65
2022/09/21 06:26:08;;;;;;;9.50;3.92;;;;;;;;;;5071540;28;20056;-64
2022/09/21 06:28:39;;;;;;;9.20;4.00;;;;;;;;;;5071377;28;20868;-64
2022/09/21 06:31:10;;;;;;;11.38;4.28;;;;;;;;;;5071877;28;20389;-64
2022/09/21 06:33:40;;;;;;;10.50;4.40;;;;;;;;;;5031052;28;20128;-64
2022/09/21 06:36:16;;;;;;;11.98;4.38;;;;;;;;;;5010904;28;20539;-64
2022/09/21 06:38:46;;;;;;;11.30;4.07;;;;;;;;;;4972121;28;20549;-64
2022/09/21 06:41:16;;;;;;;9.15;3.97;;;;;;;;;;4924248;28;20057;-65
2022/09/21 06:43:54;;;;;;;12.55;3.92;;;;;;;;;;4924127;28;20058;-65
2022/09/21 06:46:25;;;;;;;11.50;4.07;;;;;;;;;;4984549;28;20058;-64
2022/09/21 06:48:55;;;;;;;8.32;3.95;;;;;;;;;;4991749;28;20498;-64
2022/09/21 06:51:26;;;;;;;9.80;3.72;;;;;;;;;;4991855;28;20066;-64
2022/09/21 06:53:57;;;;;;;8.73;3.67;;;;;;;;;;4943071;28;20093;-64
2022/09/21 06:56:27;;;;;;;9.07;3.38;;;;;;;;;;4943443;28;20070;-64
2022/09/21 06:58:58;;;;;;;9.48;3.90;;;;;;;;;;4933527;29;20052;-65
2022/09/21 07:01:29;;;;;;;10.40;3.65;;;;;;;;;;4933683;29;20055;-64
2022/09/21 07:03:59;;;;;;;9.07;4.18;;;;;;;;;;4933252;29;20063;-64
2022/09/21 07:06:29;;;;;;;8.35;3.85;;;;;;;;;;4933569;29;20070;-64
2022/09/21 07:09:01;;;;;;;11.10;4.03;;;;;;;;;;4933461;29;20063;-65
2022/09/21 07:11:53;;;;;;;10.30;3.63;;;;;;;;;;4961054;28;20051;-64
2022/09/21 07:14:23;;;;;;;7.45;3.10;;;;;;;;;;4924254;29;20043;-64
2022/09/21 07:16:53;;;;;;;9.30;3.55;;;;;;;;;;4992507;28;20049;-64
2022/09/21 07:19:23;;;;;;;8.70;3.95;;;;;;;;;;4994308;28;20049;-64
2022/09/21 07:21:54;;;;;;;9.80;4.13;;;;;;;;;;4994723;28;20061;-65
2022/09/21 07:24:25;;;;;;;8.65;3.28;;;;;;;;;;5010618;28;20054;-64
2022/09/21 07:26:55;;;;;;;10.30;3.88;;;;;;;;;;4977989;28;20395;-64
2022/09/21 07:29:25;;;;;;;12.20;3.97;;;;;;;;;;5010563;28;20058;-64
2022/09/21 07:31:54;;;;;;;9.32;4.03;;;;;;;;;;5010953;28;20054;-64
2022/09/21 07:34:25;;;;;;;9.45;4.00;;;;;;;;;;5010494;28;20058;-64
2022/09/21 07:36:55;;;;;;;10.20;3.92;;;;;;;;;;5002711;28;20057;-64
2022/09/21 07:39:25;;;;;;;9.00;4.03;;;;;;;;;;5017151;28;20061;-64
2022/09/21 07:41:57;;;;;;;10.93;4.28;;;;;;;;;;5049982;28;20052;-64
2022/09/21 07:44:27;;;;;;;;;;;;;;;;;;5000824;28;20060;-65
2022/09/21 07:46:56;;;;;;;11.70;4.38;;;;;;;;;;4984105;28;19921;-64
2022/09/21 07:49:26;;;;;;;14.65;4.68;;;;;;;;;;5049951;28;20048;-64
2022/09/21 07:51:57;;;;;;;12.98;4.53;;;;;;;;;;5068758;28;20392;-64
2022/09/21 07:54:33;;;;;;;11.85;4.55;;;;;;;;;;5039690;28;20044;-64
2022/09/21 07:59:57;;;;;;;10.48;4.07;;;;;;;;;;5082977;28;20044;-66
2022/09/21 08:02:27;;;;;;;11.73;4.47;;;;;;;;;;5092547;28;20166;-64
2022/09/21 08:04:57;;;;;;;16.48;4.75;;;;;;;;;;5056580;28;20063;-64
2022/09/21 08:07:29;;;;;;;9.93;4.15;;;;;;;;;;5092433;28;20044;-65
2022/09/21 08:09:58;;;;;;;10.45;4.07;;;;;;;;;;5023900;28;20492;-65
2022/09/21 08:12:28;;;;;;;8.98;4.05;;;;;;;;;;5092308;28;20491;-65
2022/09/21 08:14:59;;;;;;;9.20;3.97;;;;;;;;;;5092059;28;20480;-67
2022/09/21 08:17:28;;;;;;;9.95;4.40;;;;;;;;;;5092103;28;20048;-65
2022/09/21 08:19:58;;;;;;;9.65;4.43;;;;;;;;;;5092144;28;20048;-65
2022/09/21 08:22:28;;;;;;;11.63;4.93;;;;;;;;;;5089451;28;20515;-64
2022/09/21 08:24:58;;;;;;;11.57;3.88;;;;;;;;;;5089393;28;20052;-65
2022/09/21 08:27:28;;;;;;;10.43;4.20;;;;;;;;;;5089721;28;20056;-64
2022/09/21 08:29:58;;;;;;;10.15;4.43;;;;;;;;;;5089414;28;20170;-65
2022/09/21 08:32:29;;;;;;;17.17;4.90;;;;;;;;;;5089525;28;20047;-65
2022/09/21 08:35:19;;;;;;;12.45;3.30;;;;;;;;;;5089436;28;20052;-64
2022/09/21 08:37:52;;;;;;;10.63;3.63;;;;;;;;;;5032307;28;20056;-64
2022/09/21 08:40:23;;;;;;;8.35;3.47;;;;;;;;;;4999672;28;20052;-67
2022/09/21 08:43:08;;;;;;;14.98;3.70;;;;;;;;;;5048786;28;20049;-64
2022/09/21 08:45:44;;;;;;;9.95;3.97;;;;;;;;;;5049083;28;20056;-64
2022/09/21 08:48:21;;;;;;;8.73;3.92;;;;;;;;;;5009073;28;20046;-64
2022/09/21 08:51:06;;;;;;;11.48;3.75;;;;;;;;;;5009772;28;20064;-64
2022/09/21 08:53:44;;;;;;;8.80;3.10;;;;;;;;;;5009121;28;20049;-65
2022/09/21 08:56:15;;;;;;;8.02;3.55;;;;;;;;;;5009083;28;20068;-64
2022/09/21 08:58:45;;;;;;;9.63;3.83;;;;;;;;;;5009052;28;20062;-64
2022/09/21 09:01:43;;;;;;;9.25;3.10;;;;;;;;;;5028325;28;20061;-65
2022/09/21 09:04:13;;;;;;;;;;;;;;;;;;5029420;28;20076;-65
2022/09/21 09:07:04;;;;;;;7.22;3.35;;;;;;;;;;5028195;28;19928;-64
2022/09/21 09:10:04;;;;;;;7.63;3.53;;;;;;;;;;5029044;28;20057;-64
2022/09/21 09:12:53;;;;;;;9.50;3.58;;;;;;;;;;4979912;28;20057;-64
2022/09/21 09:15:43;;;;;;;15.27;3.90;;;;;;;;;;5027710;28;20525;-65
2022/09/21 09:18:23;;;;;;;9.77;4.22;;;;;;;;;;5048606;28;20579;-64
2022/09/21 09:20:59;;;;;;;8.98;4.03;;;;;;;;;;5048665;28;20056;-64
2022/09/21 09:23:40;;;;;;;11.05;3.72;;;;;;;;;;5048742;28;20064;-64
2022/09/21 09:26:29;;;;;;;10.60;4.13;;;;;;;;;;5074929;28;20063;-65
2022/09/21 09:29:13;;;;;;;7.97;3.70;;;;;;;;;;5091175;28;20395;-64
2022/09/21 09:31:45;;;;;;;10.05;3.15;;;;;;;;;;5091149;28;20051;-65
2022/09/21 09:34:35;;;;;;;8.93;4.00;;;;;;;;;;5091270;28;20107;-65
2022/09/21 09:37:12;;;;;;;7.80;3.40;;;;;;;;;;5090912;28;20051;-64
2022/09/21 09:39:46;;;;;;;7.57;3.13;;;;;;;;;;5088558;28;20068;-65
2022/09/21 09:42:48;;;;;;;7.05;3.20;;;;;;;;;;5088613;28;20052;-64
2022/09/21 09:45:46;;;;;;;11.15;3.60;;;;;;;;;;5086965;28;20147;-65
2022/09/21 09:49:00;;;;;;;7.72;3.33;;;;;;;;;;5068015;28;20056;-65
2022/09/21 09:51:38;;;;;;;8.82;4.30;;;;;;;;;;5012191;28;20060;-65
2022/09/21 09:54:14;;;;;;;8.23;3.88;;;;;;;;;;5011818;28;20057;-65
2022/09/21 09:56:45;;;;;;;10.93;4.15;;;;;;;;;;5028284;28;20057;-65
2022/09/21 09:59:44;;;;;;;11.98;4.90;;;;;;;;;;4995339;28;20053;-65
2022/09/21 10:02:27;;;;;;;10.57;4.50;;;;;;;;;;5028301;28;20066;-65
2022/09/21 10:05:04;;;;;;;10.48;4.80;;;;;;;;;;5028282;28;20097;-65
2022/09/21 10:07:39;;;;;;;12.88;5.38;;;;;;;;;;5028112;28;20057;-65
2022/09/21 10:10:33;;;;;;;12.23;4.70;;;;;;;;;;5028051;28;20069;-65
2022/09/21 10:13:12;;;;;;;10.85;4.72;;;;;;;;;;4975826;28;20050;-65
2022/09/21 10:15:48;;;;;;;8.82;4.47;;;;;;;;;;4972409;28;20479;-65
2022/09/21 10:18:27;;;;;;;9.30;3.50;;;;;;;;;;4991153;28;20162;-65
2022/09/21 10:21:02;;;;;;;8.73;4.07;;;;;;;;;;4992346;28;20173;-65
2022/09/21 10:23:34;;;;;;;8.18;3.78;;;;;;;;;;4960160;28;20062;-65
2022/09/21 10:26:11;;;;;;;9.32;3.47;;;;;;;;;;5003372;28;20053;-66
2022/09/21 10:29:15;;;;;;;9.88;4.15;;;;;;;;;;5009599;28;20062;-65
2022/09/21 10:31:57;;;;;;;10.65;3.78;;;;;;;;;;5031953;28;20060;-65
2022/09/21 10:34:33;;;;;;;7.30;3.65;;;;;;;;;;5015322;28;20053;-65
2022/09/21 10:37:27;;;;;;;8.65;4.60;;;;;;;;;;5031245;28;20046;-64
2022/09/21 10:39:57;;;;;;;10.15;4.18;;;;;;;;;;5031408;28;20445;-64
2022/09/21 10:42:35;;;;;;;8.77;3.75;;;;;;;;;;5031228;28;20108;-65
2022/09/21 10:45:35;;;;;;;10.57;4.18;;;;;;;;;;5031284;28;20061;-64
2022/09/21 10:48:05;;;;;;;9.32;4.20;;;;;;;;;;4952912;29;20054;-64
2022/09/21 10:50:39;;;;;;;9.20;4.15;;;;;;;;;;4942420;29;20063;-65
2022/09/21 10:53:09;;;;;;;10.13;5.28;;;;;;;;;;4905174;29;20070;-65
2022/09/21 10:56:17;;;;;;;9.52;4.65;;;;;;;;;;4952689;28;20055;-65
2022/09/21 10:59:21;;;;;;;9.73;4.07;;;;;;;;;;4933517;29;20062;-65
2022/09/21 11:01:53;;;;;;;7.55;3.88;;;;;;;;;;4914189;29;20048;-65
2022/09/21 11:04:31;;;;;;;9.00;4.35;;;;;;;;;;4914396;29;20052;-65
2022/09/21 11:07:17;;;;;;;10.55;4.68;;;;;;;;;;4895342;29;20809;-65
2022/09/21 11:10:13;;;;;;;8.82;4.00;;;;;;;;;;4895651;29;20071;-66
2022/09/21 11:12:52;;;;;;;7.63;3.63;;;;;;;;;;4821180;29;20137;-66
2022/09/21 11:15:39;;;;;;;7.88;3.65;;;;;;;;;;4790933;29;20062;-67
2022/09/21 11:18:37;;;;;;;8.15;4.18;;;;;;;;;;4839740;29;20411;-66
2022/09/21 11:21:31;;;;;;;12.43;4.35;;;;;;;;;;4839826;29;20062;-66
2022/09/21 11:24:45;;;;;;;6.80;3.30;;;;;;;;;;4839827;29;20058;-66
2022/09/21 11:27:21;;;;;;;7.65;4.20;;;;;;;;;;4806703;29;20062;-66
2022/09/21 11:29:57;;;;;;;8.05;4.13;;;;;;;;;;4854483;29;20514;-66
2022/09/21 11:33:08;;;;;;;8.77;4.50;;;;;;;;;;4854783;29;20072;-66
2022/09/21 11:35:57;;;;;;;7.47;3.55;;;;;;;;;;4866059;29;20506;-67
2022/09/21 11:38:34;;;;;;;6.38;3.42;;;;;;;;;;4908015;29;20056;-66
2022/09/21 11:41:41;;;;;;;7.70;3.63;;;;;;;;;;4901454;29;20070;-66
2022/09/21 11:44:16;;;;;;;8.55;4.93;;;;;;;;;;4901449;29;20527;-67
2022/09/21 11:47:21;;;;;;;8.88;4.40;;;;;;;;;;4932747;29;20460;-66
2022/09/21 11:50:04;;;;;;;5.72;3.15;;;;;;;;;;4949712;28;20054;-66
2022/09/21 11:52:55;;;;;;;6.80;3.45;;;;;;;;;;4990873;28;20050;-66
2022/09/21 11:55:43;;;;;;;8.48;3.55;;;;;;;;;;4958251;28;20073;-66
2022/09/21 11:58:27;;;;;;;5.20;2.85;;;;;;;;;;4954823;28;20047;-66
2022/09/21 12:01:14;;;;;;;7.22;3.30;;;;;;;;;;4987222;28;20050;-67
2022/09/21 12:04:03;;;;;;;7.35;2.88;;;;;;;;;;5013763;28;20052;-66
2022/09/21 12:06:39;;;;;;;3.72;1.95;;;;;;;;;;5053256;28;20049;-67
2022/09/21 12:09:40;;;;;;;3.88;2.03;;;;;;;;;;5069677;28;20056;-66
2022/09/21 12:12:13;;;;;;;3.58;1.60;;;;;;;;;;5052202;28;20056;-67
2022/09/21 12:14:49;;;;;;;3.97;1.50;;;;;;;;;;5029652;28;20049;-68
2022/09/21 12:17:36;;;;;;;4.00;1.73;;;;;;;;;;5029740;28;20417;-68
2022/09/21 12:20:21;;;;;;;4.03;1.90;;;;;;;;;;5029256;28;20076;-67
2022/09/21 12:22:57;;;;;;;3.85;1.83;;;;;;;;;;5029368;28;20058;-67
2022/09/21 12:25:40;;;;;;;3.10;1.55;;;;;;;;;;5029246;28;20061;-66
2022/09/21 12:28:41;;;;;;;3.53;1.85;;;;;;;;;;4996406;28;20061;-67
2022/09/21 12:31:25;;;;;;;5.00;1.70;;;;;;;;;;4997157;28;20062;-67
2022/09/21 12:34:03;;;;;;;5.15;1.73;;;;;;;;;;4989672;28;20050;-68
2022/09/21 12:36:52;;;;;;;6.55;2.95;;;;;;;;;;4974460;28;20062;-67
2022/09/21 12:39:40;;;;;;;3.72;1.48;;;;;;;;;;4984215;28;20059;-68
2022/09/21 12:42:24;;;;;;;3.60;1.40;;;;;;;;;;4970305;28;20059;-66
2022/09/21 12:44:58;;;;;;;6.65;1.92;;;;;;;;;;4970445;28;20055;-66
2022/09/21 12:47:48;;;;;;;3.90;1.63;;;;;;;;;;4969848;28;20054;-67
2022/09/21 12:50:28;;;;;;;4.03;1.90;;;;;;;;;;4970197;28;20066;-67
2022/09/21 12:53:00;;;;;;;5.38;1.90;;;;;;;;;;4970148;28;20066;-66
2022/09/21 12:55:48;;;;;;;6.03;1.90;;;;;;;;;;4970198;28;20062;-67
2022/09/21 12:58:29;;;;;;;4.60;2.17;;;;;;;;;;4942094;28;20060;-67
2022/09/21 13:01:08;;;;;;;4.40;2.22;;;;;;;;;;4931672;29;20428;-67
2022/09/21 13:03:43;;;;;;;4.55;2.13;;;;;;;;;;4931787;29;20063;-67
2022/09/21 13:06:59;;;;;;;5.15;1.70;;;;;;;;;;4950596;29;20047;-67
2022/09/21 13:09:31;;;;;;;2.95;1.63;;;;;;;;;;4989436;28;20120;-66
2022/09/21 13:12:27;;;;;;;5.93;1.95;;;;;;;;;;5016204;28;20507;-67
2022/09/21 13:15:03;;;;;;;4.45;1.92;;;;;;;;;;4960686;28;20054;-66
2022/09/21 13:17:35;;;;;;;6.13;2.28;;;;;;;;;;4977889;28;20046;-67
2022/09/21 13:20:17;;;;;;;4.97;2.55;;;;;;;;;;5009079;28;20057;-66
2022/09/21 13:22:48;;;;;;;7.05;2.60;;;;;;;;;;5008860;28;20054;-66
2022/09/21 13:25:26;;;;;;;6.38;2.63;;;;;;;;;;4949076;28;20414;-66
2022/09/21 13:28:12;;;;;;;6.30;2.53;;;;;;;;;;4973335;28;20054;-66
2022/09/21 13:31:10;;;;;;;6.40;2.75;;;;;;;;;;4924864;28;20505;-66
2022/09/21 13:34:30;;;;;;;6.85;3.22;;;;;;;;;;4969990;28;20066;-67
2022/09/21 13:37:13;;;;;;;7.47;3.22;;;;;;;;;;4942287;28;20055;-66
2022/09/21 13:40:02;;;;;;;5.88;2.40;;;;;;;;;;4953436;28;20054;-67
2022/09/21 13:42:33;;;;;;;5.20;3.15;;;;;;;;;;4969847;28;20576;-67
2022/09/21 13:45:18;;;;;;;5.00;2.55;;;;;;;;;;4918770;29;20421;-67
2022/09/21 13:47:49;;;;;;;;;;;;;;;;;;4934833;29;20435;-66
2022/09/21 13:50:19;;;;;;;;;;;;;;;;;;4951001;28;19922;-66
2022/09/21 13:52:53;;;;;;;5.15;2.30;;;;;;;;;;4953601;28;19922;-66
2022/09/21 13:55:29;;;;;;;5.05;2.25;;;;;;;;;;4954007;28;20070;-67
2022/09/21 13:58:04;;;;;;;5.00;2.45;;;;;;;;;;4953928;29;20177;-66
2022/09/21 14:00:41;;;;;;;5.40;2.88;;;;;;;;;;4954142;29;20078;-66
2022/09/21 14:03:40;;;;;;;6.25;2.80;;;;;;;;;;4945636;28;20050;-66
2022/09/21 14:06:41;;;;;;;6.60;2.83;;;;;;;;;;4993054;28;20046;-66
2022/09/21 14:09:28;;;;;;;10.73;3.33;;;;;;;;;;4992692;28;20159;-67
2022/09/21 14:12:03;;;;;;;6.32;2.30;;;;;;;;;;5051871;28;20049;-67
2022/09/21 14:14:37;;;;;;;5.97;2.33;;;;;;;;;;5031747;28;20401;-66
2022/09/21 14:17:34;;;;;;;5.90;2.88;;;;;;;;;;5032042;28;20501;-66
2022/09/21 14:20:26;;;;;;;6.47;2.83;;;;;;;;;;4982585;28;20049;-66
2022/09/21 14:23:15;;;;;;;5.13;2.80;;;;;;;;;;5016117;28;20060;-66
2022/09/21 14:25:57;;;;;;;8.88;3.10;;;;;;;;;;4982686;28;20057;-66
2022/09/21 14:28:57;;;;;;;5.68;2.90;;;;;;;;;;5031511;28;20486;-66
2022/09/21 14:31:33;;;;;;;6.05;2.95;;;;;;;;;;4972635;28;20400;-66
2022/09/21 14:34:11;;;;;;;6.18;2.75;;;;;;;;;;4972887;28;20570;-67
2022/09/21 14:36:48;;;;;;;7.45;3.10;;;;;;;;;;4972519;28;20053;-66
2022/09/21 14:39:41;;;;;;;5.95;2.95;;;;;;;;;;4972844;28;20062;-66
2022/09/21 14:42:18;;;;;;;5.80;2.97;;;;;;;;;;4972616;28;20062;-67
2022/09/21 14:44:50;;;;;;;6.18;3.53;;;;;;;;;;4972498;28;20175;-67
2022/09/21 14:47:36;;;;;;;7.07;3.13;;;;;;;;;;4972511;28;20051;-67
2022/09/21 14:50:23;;;;;;;7.15;2.58;;;;;;;;;;4972386;28;20483;-67
2022/09/21 14:53:08;;;;;;;6.22;2.90;;;;;;;;;;4990623;28;20069;-67
2022/09/21 14:56:15;;;;;;;6.32;2.80;;;;;;;;;;4978782;28;20406;-67
2022/09/21 14:59:06;;;;;;;6.45;3.00;;;;;;;;;;5011378;28;20054;-66
2022/09/21 15:01:41;;;;;;;6.78;3.15;;;;;;;;;;5011350;28;20101;-67
2022/09/21 15:04:49;;;;;;;6.07;2.70;;;;;;;;;;5010831;28;20038;-67
2022/09/21 15:13:46;;;;;;;7.25;3.22;;;;;;;;;;5030998;28;20060;-66
2022/09/21 15:16:20;;;;;;;5.97;2.88;;;;;;;;;;4998002;28;20053;-66
2022/09/21 15:19:03;;;;;;;6.63;2.80;;;;;;;;;;4998409;28;20057;-66
2022/09/21 15:21:34;;;;;;;8.50;3.15;;;;;;;;;;5030940;28;20053;-67
2022/09/21 15:24:19;;;;;;;;;;;;;;;;;;4998315;28;20061;-67
2022/09/21 15:26:50;;;;;;;6.25;3.00;;;;;;;;;;5014571;28;19944;-67
2022/09/21 15:29:30;;;;;;;6.25;2.95;;;;;;;;;;4991034;28;20054;-66
2022/09/21 15:32:01;;;;;;;6.72;2.97;;;;;;;;;;4974652;28;20054;-67
2022/09/21 15:34:31;;;;;;;8.57;3.60;;;;;;;;;;4942817;28;20066;-66
2022/09/21 15:37:16;;;;;;;6.70;2.92;;;;;;;;;;4974362;28;20062;-66
2022/09/21 15:40:00;;;;;;;7.53;3.10;;;;;;;;;;4958762;28;20069;-66
2022/09/21 15:42:33;;;;;;;6.93;3.05;;;;;;;;;;4991293;28;20054;-66
2022/09/21 15:45:17;;;;;;;6.43;3.58;;;;;;;;;;5032836;28;20061;-66
2022/09/21 15:47:48;;;;;;;8.07;3.45;;;;;;;;;;5050088;28;20049;-66
2022/09/21 15:50:20;;;;;;;8.13;3.58;;;;;;;;;;5033706;28;20053;-67
2022/09/21 15:52:59;;;;;;;8.88;4.28;;;;;;;;;;5049869;28;20044;-66
2022/09/21 15:55:29;;;;;;;15.55;6.70;;;;;;;;;;5050172;28;20405;-66
2022/09/21 15:58:00;;;;;;;9.80;4.47;;;;;;;;;;5016738;28;20068;-66
2022/09/21 16:00:35;;;;;;;8.50;3.80;;;;;;;;;;5049884;28;20052;-67